createdAt,value
2023-02-03T00:00:31.373Z,1.10
2023-02-03T00:05:07.598Z,1.20
2023-02-03T00:09:35.122Z,0.90
2023-02-03T00:13:59.052Z,0.90
2023-02-03T00:18:22.895Z,1.10
2023-02-03T00:22:46.980Z,1.00
2023-02-03T00:27:10.937Z,1.00
2023-02-03T00:31:35.300Z,0.70
2023-02-03T00:35:59.249Z,1.10
2023-02-03T00:40:23.290Z,1.10
2023-02-03T00:44:47.419Z,1.00
2023-02-03T00:49:11.355Z,0.50
2023-02-03T00:53:35.439Z,1.50
2023-02-03T00:57:59.391Z,1.00
2023-02-03T01:02:23.551Z,0.80
2023-02-03T01:06:53.331Z,0.70
2023-02-03T01:11:17.292Z,0.80
2023-02-03T01:15:41.273Z,0.90
2023-02-03T01:20:06.307Z,0.70
2023-02-03T01:24:30.328Z,1.00
2023-02-03T01:28:55.185Z,1.00
2023-02-03T01:33:19.123Z,0.90
2023-02-03T01:38:03.545Z,1.00
2023-02-03T01:42:27.542Z,0.80
2023-02-03T01:47:09.858Z,0.80
2023-02-03T01:51:34.104Z,0.80
2023-02-03T01:55:58.074Z,0.70
2023-02-03T02:00:22.013Z,1.30
2023-02-03T02:04:49.466Z,1.00
2023-02-03T02:09:13.346Z,1.10
2023-02-03T02:13:38.173Z,0.80
2023-02-03T02:18:04.440Z,0.80
2023-02-03T02:22:40.492Z,1.10
2023-02-03T02:27:13.616Z,0.90
2023-02-03T02:31:52.842Z,0.90
2023-02-03T02:36:19.480Z,0.80
2023-02-03T02:40:46.194Z,0.90
2023-02-03T02:49:22.538Z,0.70
2023-02-03T02:53:46.760Z,1.00
2023-02-03T02:58:10.705Z,0.90
2023-02-03T03:02:34.711Z,0.90
2023-02-03T03:06:58.850Z,0.90
2023-02-03T03:11:22.860Z,0.90
2023-02-03T03:15:49.941Z,0.70
2023-02-03T03:20:16.336Z,0.80
2023-02-03T03:24:40.345Z,0.80
2023-02-03T03:29:04.443Z,0.90
2023-02-03T03:33:29.466Z,1.10
2023-02-03T03:38:05.400Z,0.70
2023-02-03T03:42:35.339Z,0.90
2023-02-03T03:46:59.297Z,0.80
2023-02-03T03:51:32.933Z,0.90
2023-02-03T03:55:56.848Z,0.80
2023-02-03T04:00:20.831Z,1.40
2023-02-03T04:04:48.196Z,0.80
2023-02-03T04:09:05.310Z,0.70
2023-02-03T04:13:29.357Z,0.80
2023-02-03T04:17:53.353Z,0.90
2023-02-03T04:22:18.619Z,0.90
2023-02-03T04:26:42.808Z,0.90
2023-02-03T04:31:07.101Z,1.10
2023-02-03T04:35:31.369Z,2.10
2023-02-03T04:39:56.391Z,1.00
2023-02-03T04:44:20.426Z,0.90
2023-02-03T04:48:44.426Z,1.00
2023-02-03T04:53:08.469Z,2.60
2023-02-03T04:57:32.312Z,2.20
2023-02-03T05:01:56.570Z,1.30
2023-02-03T05:06:20.471Z,1.20
2023-02-03T05:10:44.538Z,1.10
2023-02-03T05:15:08.456Z,1.20
2023-02-03T05:19:32.333Z,12.80
2023-02-03T05:23:56.336Z,4.50
2023-02-03T05:28:20.356Z,6.40
2023-02-03T05:32:44.423Z,1.20
2023-02-03T05:37:08.562Z,1.10
2023-02-03T05:41:30.876Z,1.80
2023-02-03T05:45:55.004Z,8.90
2023-02-03T05:50:19.015Z,4.60
2023-02-03T05:54:43.332Z,2.60
2023-02-03T05:59:06.812Z,1.50
2023-02-03T06:03:32.440Z,1.40
2023-02-03T06:07:49.081Z,3.00
2023-02-03T06:12:13.376Z,3.90
2023-02-03T06:16:37.095Z,2.30
2023-02-03T06:21:01.285Z,2.10
2023-02-03T06:25:26.119Z,2.50
2023-02-03T06:29:51.089Z,42.10
2023-02-03T06:34:15.821Z,27.40
2023-02-03T06:38:39.745Z,21.40
2023-02-03T06:43:03.982Z,13.50
2023-02-03T06:47:28.307Z,13.20
2023-02-03T06:51:44.955Z,8.70
2023-02-03T06:56:08.971Z,9.50
2023-02-03T07:00:33.113Z,3.50
2023-02-03T07:04:57.241Z,2.60
2023-02-03T07:09:21.328Z,2.20
2023-02-03T07:13:45.231Z,2.20
2023-02-03T07:18:09.078Z,2.30
2023-02-03T07:22:33.404Z,2.30
2023-02-03T07:26:57.387Z,5.30
2023-02-03T07:31:11.568Z,2.70
2023-02-03T07:35:35.725Z,4.50
2023-02-03T07:39:59.761Z,3.00
2023-02-03T07:44:17.135Z,3.10
2023-02-03T07:48:33.812Z,2.30
2023-02-03T07:52:57.724Z,2.10
2023-02-03T07:57:21.697Z,2.30
2023-02-03T08:01:39.727Z,2.20
2023-02-03T08:06:04.226Z,1.40
2023-02-03T08:10:28.457Z,1.40
2023-02-03T08:14:53.190Z,1.60
2023-02-03T08:19:17.241Z,2.20
2023-02-03T08:23:42.155Z,2.90
2023-02-03T08:28:06.368Z,3.00
2023-02-03T08:32:30.336Z,3.40
2023-02-03T08:36:54.556Z,3.30
2023-02-03T08:41:18.778Z,4.50
2023-02-03T08:45:42.804Z,8.90
2023-02-03T08:50:07.019Z,9.20
2023-02-03T08:54:30.966Z,6.70
2023-02-03T08:58:48.845Z,4.50
2023-02-03T09:03:11.848Z,4.00
2023-02-03T09:07:28.408Z,4.20
2023-02-03T09:11:52.478Z,5.20
2023-02-03T09:16:16.898Z,5.80
2023-02-03T09:20:40.884Z,2.70
2023-02-03T09:25:05.565Z,8.70
2023-02-03T09:29:29.491Z,4.60
2023-02-03T09:33:54.911Z,3.50
2023-02-03T09:38:18.999Z,2.40
2023-02-03T09:42:54.881Z,2.30
2023-02-03T09:47:18.793Z,1.90
2023-02-03T09:51:42.771Z,1.40
2023-02-03T09:56:09.407Z,1.40
2023-02-03T10:04:45.796Z,1.40
2023-02-03T10:09:09.640Z,1.60
2023-02-03T10:13:45.904Z,3.50
2023-02-03T10:18:21.797Z,2.60
2023-02-03T10:22:38.521Z,3.30
2023-02-03T10:27:02.380Z,2.70
2023-02-03T10:31:29.703Z,11.50
2023-02-03T10:36:13.515Z,5.90
2023-02-03T10:40:37.523Z,36.20
2023-02-03T10:45:01.487Z,11.10
2023-02-03T10:49:25.827Z,11.60
2023-02-03T10:53:58.972Z,20.50
2023-02-03T10:58:22.863Z,12.90
2023-02-03T11:03:07.665Z,12.70
2023-02-03T11:07:31.847Z,66.10
2023-02-03T11:12:01.581Z,18.80
2023-02-03T11:16:40.144Z,15.00
2023-02-03T11:21:04.455Z,10.50
2023-02-03T11:25:28.399Z,46.30
2023-02-03T11:29:52.699Z,18.30
2023-02-03T11:34:20.589Z,14.50
2023-02-03T11:42:48.269Z,21.70
2023-02-03T11:47:12.201Z,26.10
2023-02-03T11:51:36.439Z,34.00
2023-02-03T11:56:06.360Z,15.40
2023-02-03T12:00:29.997Z,9.30
2023-02-03T12:05:06.176Z,17.60
2023-02-03T12:09:45.491Z,42.80
2023-02-03T12:14:15.111Z,39.40
2023-02-03T12:18:45.058Z,14.40
2023-02-03T12:23:42.578Z,14.70
2023-02-03T12:28:34.854Z,7.80
2023-02-03T12:33:27.658Z,5.30
2023-02-03T12:37:58.387Z,4.60
2023-02-03T12:42:25.501Z,6.70
2023-02-03T12:46:43.703Z,6.90
2023-02-03T13:44:12.629Z,35.80
2023-02-03T13:48:50.008Z,43.90
2023-02-03T13:53:33.193Z,25.50
2023-02-03T13:58:00.027Z,26.00
2023-02-03T14:02:50.151Z,17.10
2023-02-03T14:07:18.554Z,11.70
2023-02-03T14:11:45.439Z,12.80
2023-02-03T14:16:21.959Z,7.60
2023-02-03T14:21:09.509Z,6.00
2023-02-03T14:29:42.855Z,3.60
2023-02-03T14:34:06.762Z,3.40
2023-02-03T14:38:34.340Z,4.60
2023-02-03T14:47:23.011Z,4.20
2023-02-03T14:51:47.036Z,3.70
2023-02-03T14:56:10.987Z,3.20
2023-02-03T15:00:37.430Z,5.50
2023-02-03T15:05:13.621Z,4.40
2023-02-03T15:09:47.247Z,4.40
2023-02-03T15:14:29.744Z,4.40
2023-02-03T15:19:02.814Z,5.40
2023-02-03T15:23:29.750Z,10.30
2023-02-03T15:28:02.965Z,12.30
2023-02-03T15:32:35.803Z,6.40
2023-02-03T15:37:00.217Z,6.10
2023-02-03T15:41:29.980Z,6.80
2023-02-03T15:45:53.874Z,7.10
2023-02-03T15:50:30.413Z,7.30
2023-02-03T15:59:04.879Z,5.30
2023-02-03T16:03:39.085Z,6.20
2023-02-03T16:08:05.562Z,5.20
2023-02-03T16:12:32.311Z,3.70
2023-02-03T16:17:05.361Z,3.70
2023-02-03T16:21:30.293Z,3.90
2023-02-03T16:26:23.225Z,3.20
2023-02-03T16:30:45.893Z,16.90
2023-02-03T16:35:14.333Z,16.80
2023-02-03T16:39:36.916Z,34.30
2023-02-03T16:43:54.237Z,37.00
2023-02-03T16:48:19.529Z,42.30
2023-02-03T16:52:39.233Z,37.40
2023-02-03T16:57:03.382Z,26.60
2023-02-03T17:01:28.042Z,27.50
2023-02-03T17:06:13.411Z,19.70
2023-02-03T17:10:37.642Z,53.10
2023-02-03T17:15:01.619Z,29.70
2023-02-03T17:19:25.539Z,38.80
2023-02-03T17:23:50.425Z,47.30
2023-02-03T17:28:14.553Z,42.20
2023-02-03T17:32:39.299Z,40.40
2023-02-03T17:37:06.235Z,33.40
2023-02-03T17:55:36.845Z,9.90
2023-02-03T18:00:00.811Z,8.70
2023-02-03T18:04:24.761Z,7.30
2023-02-03T18:08:50.124Z,7.10
2023-02-03T18:13:14.209Z,11.50
2023-02-03T18:17:38.087Z,9.30
2023-02-03T18:22:05.847Z,8.40
2023-02-03T18:26:33.055Z,26.40
2023-02-03T18:30:57.153Z,20.50
2023-02-03T18:35:20.933Z,84.10
2023-02-03T18:39:45.261Z,14.40
2023-02-03T18:44:09.240Z,8.60
2023-02-03T18:48:33.394Z,16.30
2023-02-03T18:52:58.176Z,12.50
2023-02-03T18:57:22.533Z,9.70
2023-02-03T19:01:46.648Z,9.60
2023-02-03T19:06:10.760Z,8.80
2023-02-03T19:10:34.699Z,7.70
2023-02-03T19:14:58.666Z,5.50
2023-02-03T19:19:23.146Z,5.90
2023-02-03T19:23:47.105Z,7.00
2023-02-03T19:28:17.433Z,7.10
2023-02-03T19:32:44.172Z,7.90
2023-02-03T19:37:08.293Z,8.50
2023-02-03T19:41:32.166Z,11.30
2023-02-03T19:45:56.510Z,6.20
2023-02-03T19:50:19.334Z,6.60
2023-02-03T19:54:43.233Z,7.10
2023-02-03T19:59:07.267Z,7.50
2023-02-03T20:03:24.385Z,7.30
2023-02-03T20:07:48.290Z,6.10
2023-02-03T20:12:04.750Z,16.20
2023-02-03T20:16:28.845Z,7.40
2023-02-03T20:20:52.864Z,5.50
2023-02-03T20:25:17.767Z,4.80
2023-02-03T20:29:41.711Z,5.00
2023-02-03T20:33:58.413Z,8.00
2023-02-03T20:42:26.725Z,10.90
2023-02-03T20:46:51.680Z,9.60
2023-02-03T20:51:21.589Z,7.20
2023-02-03T20:55:57.503Z,6.40
2023-02-03T21:00:29.614Z,6.20
2023-02-03T21:04:52.683Z,5.70
2023-02-03T21:09:16.639Z,6.80
2023-02-03T21:13:40.597Z,6.90
2023-02-03T21:18:04.657Z,6.70
2023-02-03T21:22:28.731Z,7.10
2023-02-03T21:27:01.492Z,6.80
2023-02-03T21:31:28.475Z,4.70
2023-02-03T21:35:51.256Z,4.30
2023-02-03T21:40:24.164Z,3.10
2023-02-03T21:44:48.119Z,1.60
2023-02-03T21:49:05.436Z,1.50
2023-02-03T21:53:29.641Z,1.00
2023-02-03T21:57:53.904Z,0.90
2023-02-03T22:02:20.852Z,0.90
2023-02-03T22:06:44.850Z,0.80
2023-02-03T22:11:08.783Z,17.00
2023-02-03T22:15:32.434Z,14.80
2023-02-03T22:19:56.319Z,7.20
2023-02-03T22:24:19.905Z,2.50
2023-02-03T22:28:44.164Z,6.90
2023-02-03T22:33:08.229Z,13.80
2023-02-03T22:37:32.360Z,9.50
2023-02-03T22:41:56.311Z,12.20
2023-02-03T22:46:20.304Z,15.10
2023-02-03T22:50:44.363Z,14.20
2023-02-03T22:55:08.279Z,19.40
2023-02-03T22:59:32.197Z,14.70
2023-02-03T23:03:55.247Z,12.60
2023-02-03T23:08:19.190Z,9.90
2023-02-03T23:12:43.285Z,6.80
2023-02-03T23:16:59.891Z,7.30
2023-02-03T23:21:24.050Z,6.90
2023-02-03T23:25:48.153Z,7.30
2023-02-03T23:30:12.140Z,6.60
2023-02-03T23:34:34.603Z,11.90
2023-02-03T23:38:59.015Z,6.80
2023-02-03T23:43:21.981Z,22.60
2023-02-03T23:47:46.349Z,14.50
2023-02-03T23:52:00.398Z,22.20
2023-02-03T23:56:24.490Z,26.40
